createdAt,value
2023-02-07T00:02:06.289Z,36.40
2023-02-07T00:04:34.269Z,55.20
2023-02-07T00:07:02.354Z,68.00
2023-02-07T00:09:40.823Z,61.20
2023-02-07T00:12:11.182Z,47.30
2023-02-07T00:14:39.558Z,54.50
2023-02-07T00:17:10.648Z,49.90
2023-02-07T00:19:47.750Z,55.40
2023-02-07T00:22:18.604Z,69.50
2023-02-07T00:27:14.832Z,52.70
2023-02-07T00:29:45.916Z,43.20
2023-02-07T00:32:14.167Z,43.30
2023-02-07T00:34:43.052Z,46.30
2023-02-07T00:37:12.199Z,69.50
2023-02-07T00:39:42.675Z,67.30
2023-02-07T00:42:10.636Z,53.90
2023-02-07T00:44:42.088Z,84.40
2023-02-07T00:47:13.335Z,101.10
2023-02-07T00:49:41.655Z,101.20
2023-02-07T00:52:09.868Z,89.70
2023-02-07T00:54:39.183Z,81.70
2023-02-07T00:57:07.271Z,106.60
2023-02-07T00:59:35.358Z,80.10
2023-02-07T01:02:05.760Z,122.10
2023-02-07T01:04:38.954Z,99.80
2023-02-07T01:07:17.364Z,69.50
2023-02-07T01:09:45.755Z,91.40
2023-02-07T01:12:14.015Z,90.60
2023-02-07T01:14:42.298Z,72.70
2023-02-07T01:17:10.291Z,61.00
2023-02-07T01:19:38.668Z,41.90
2023-02-07T01:22:06.961Z,54.30
2023-02-07T01:24:35.605Z,77.90
2023-02-07T01:27:04.307Z,46.70
2023-02-07T01:29:34.732Z,55.00
2023-02-07T01:32:11.965Z,71.40
2023-02-07T01:34:40.228Z,53.60
2023-02-07T01:37:10.916Z,48.00
2023-02-07T01:42:10.551Z,52.10
2023-02-07T01:44:38.748Z,59.30
2023-02-07T01:47:07.101Z,51.60
2023-02-07T01:49:36.204Z,55.10
2023-02-07T01:52:16.763Z,52.70
2023-02-07T01:54:49.084Z,29.80
2023-02-07T01:57:18.240Z,57.60
2023-02-07T01:59:46.307Z,41.10
2023-02-07T02:02:23.910Z,49.30
2023-02-07T02:04:54.102Z,43.20
2023-02-07T02:07:32.912Z,54.40
2023-02-07T02:10:01.279Z,46.70
2023-02-07T02:12:32.140Z,42.30
2023-02-07T02:15:02.672Z,52.20
2023-02-07T02:17:40.126Z,47.20
2023-02-07T02:20:21.299Z,56.30
2023-02-07T02:22:49.533Z,47.00
2023-02-07T02:25:20.467Z,45.20
2023-02-07T02:28:03.969Z,49.60
2023-02-07T02:30:56.916Z,51.40
2023-02-07T02:33:42.775Z,49.70
2023-02-07T02:36:29.847Z,59.30
2023-02-07T02:39:06.522Z,42.00
2023-02-07T02:41:40.857Z,42.00
2023-02-07T02:44:13.258Z,48.70
2023-02-07T02:46:42.746Z,51.40
2023-02-07T02:49:22.052Z,39.00
2023-02-07T02:51:51.966Z,37.40
2023-02-07T02:54:28.123Z,49.40
2023-02-07T02:57:05.638Z,52.90
2023-02-07T02:59:48.792Z,49.50
2023-02-07T03:02:38.145Z,46.10
2023-02-07T03:05:16.980Z,53.20
2023-02-07T03:07:46.147Z,51.20
2023-02-07T03:10:19.833Z,45.50
2023-02-07T03:13:00.358Z,71.30
2023-02-07T03:15:42.437Z,64.90
2023-02-07T03:18:29.420Z,79.40
2023-02-07T03:21:10.652Z,56.20
2023-02-07T03:23:39.511Z,59.60
2023-02-07T03:26:10.528Z,52.50
2023-02-07T03:28:50.648Z,42.10
2023-02-07T03:31:20.053Z,40.10
2023-02-07T03:33:49.600Z,48.70
2023-02-07T03:36:30.187Z,55.10
2023-02-07T03:39:08.572Z,33.80
2023-02-07T03:41:59.832Z,50.70
2023-02-07T03:44:31.766Z,52.20
2023-02-07T03:47:00.288Z,49.80
2023-02-07T03:49:49.818Z,50.10
2023-02-07T03:52:38.164Z,45.90
2023-02-07T03:55:27.763Z,47.50
2023-02-07T03:58:09.809Z,36.20
2023-02-07T04:00:47.863Z,54.40
2023-02-07T04:03:15.902Z,56.70
2023-02-07T04:05:51.947Z,60.10
2023-02-07T04:08:28.870Z,62.80
2023-02-07T04:11:02.543Z,60.00
2023-02-07T04:13:30.830Z,57.60
2023-02-07T04:16:02.042Z,64.10
2023-02-07T04:18:35.879Z,73.50
2023-02-07T04:21:08.603Z,53.40
2023-02-07T04:23:37.035Z,55.30
2023-02-07T04:26:07.708Z,51.20
2023-02-07T04:31:05.955Z,52.60
2023-02-07T04:33:34.061Z,49.40
2023-02-07T04:36:03.547Z,45.90
2023-02-07T04:38:33.636Z,46.30
2023-02-07T04:41:05.228Z,35.40
2023-02-07T04:43:34.510Z,35.50
2023-02-07T04:46:05.772Z,41.10
2023-02-07T04:48:37.511Z,61.90
2023-02-07T04:51:06.368Z,43.80
2023-02-07T04:53:57.205Z,27.50
2023-02-07T04:56:25.475Z,49.90
2023-02-07T04:58:55.811Z,54.30
2023-02-07T05:01:26.355Z,51.30
2023-02-07T05:03:54.604Z,44.00
2023-02-07T05:06:22.654Z,44.00
2023-02-07T05:08:50.872Z,50.10
2023-02-07T05:11:39.135Z,65.30
2023-02-07T05:14:10.143Z,47.20
2023-02-07T05:16:38.271Z,48.80
2023-02-07T05:19:06.495Z,34.90
2023-02-07T05:21:34.738Z,36.40
2023-02-07T05:24:03.056Z,45.80
2023-02-07T05:26:33.781Z,41.20
2023-02-07T05:29:14.878Z,39.80
2023-02-07T05:32:01.326Z,40.90
2023-02-07T05:34:31.861Z,37.60
2023-02-07T05:37:13.425Z,48.40
2023-02-07T05:39:41.770Z,42.70
2023-02-07T05:42:09.820Z,32.10
2023-02-07T05:47:11.307Z,33.10
2023-02-07T05:49:39.607Z,43.30
2023-02-07T05:52:07.550Z,33.40
2023-02-07T05:54:35.663Z,37.20
2023-02-07T05:57:03.717Z,45.00
2023-02-07T05:59:34.411Z,54.40
2023-02-07T06:04:30.293Z,35.20
2023-02-07T06:07:00.688Z,34.40
2023-02-07T06:09:28.841Z,41.60
2023-02-07T06:11:59.271Z,32.20
2023-02-07T06:14:27.648Z,39.50
2023-02-07T06:16:55.983Z,36.20
2023-02-07T06:19:23.850Z,40.30
2023-02-07T06:21:51.908Z,43.70
2023-02-07T06:24:20.398Z,44.40
2023-02-07T06:26:50.766Z,57.90
2023-02-07T06:29:22.350Z,59.40
2023-02-07T06:31:52.989Z,71.50
2023-02-07T06:34:21.459Z,65.20
2023-02-07T06:36:52.683Z,51.80
2023-02-07T06:39:20.981Z,69.50
2023-02-07T06:41:52.489Z,61.50
2023-02-07T06:44:20.516Z,67.80
2023-02-07T06:46:51.831Z,60.50
2023-02-07T06:49:22.228Z,53.90
2023-02-07T06:51:50.367Z,49.10
2023-02-07T06:54:27.543Z,49.10
2023-02-07T06:56:55.643Z,49.80
2023-02-07T06:59:23.912Z,44.10
2023-02-07T07:01:56.490Z,43.50
2023-02-07T07:04:32.100Z,52.40
2023-02-07T07:07:06.252Z,45.40
2023-02-07T07:09:34.275Z,42.70
2023-02-07T07:12:02.350Z,51.70
2023-02-07T07:14:30.563Z,98.50
2023-02-07T07:16:58.800Z,159.80
2023-02-07T07:19:26.850Z,113.50
2023-02-07T07:21:55.643Z,98.60
2023-02-07T07:24:23.641Z,109.50
2023-02-07T07:26:51.900Z,120.80
2023-02-07T07:29:20.235Z,101.00
2023-02-07T07:31:48.304Z,75.70
2023-02-07T07:34:17.349Z,56.50
2023-02-07T07:36:45.631Z,57.00
2023-02-07T07:39:14.818Z,64.00
2023-02-07T07:41:43.177Z,62.50
2023-02-07T07:44:12.907Z,90.10
2023-02-07T07:46:40.769Z,56.80
2023-02-07T07:49:08.961Z,55.30
2023-02-07T07:51:36.815Z,55.30
2023-02-07T07:54:04.984Z,72.40
2023-02-07T07:56:35.483Z,133.40
2023-02-07T07:59:05.956Z,90.90
2023-02-07T08:01:40.122Z,45.80
2023-02-07T08:04:08.442Z,42.00
2023-02-07T08:06:36.608Z,37.10
2023-02-07T08:09:04.573Z,57.70
2023-02-07T08:11:32.736Z,55.90
2023-02-07T08:14:01.338Z,53.70
2023-02-07T08:16:29.618Z,48.50
2023-02-07T08:18:58.055Z,55.80
2023-02-07T08:21:27.160Z,96.60
2023-02-07T08:23:55.259Z,80.00
2023-02-07T08:26:23.276Z,91.60
2023-02-07T08:28:53.552Z,97.30
2023-02-07T08:31:21.650Z,81.80
2023-02-07T08:33:49.670Z,66.00
2023-02-07T08:36:17.575Z,74.60
2023-02-07T08:38:45.616Z,72.40
2023-02-07T08:41:13.446Z,88.30
2023-02-07T08:43:42.064Z,96.50
2023-02-07T08:46:10.280Z,68.60
2023-02-07T08:48:38.494Z,60.80
2023-02-07T08:51:06.935Z,59.90
2023-02-07T08:53:35.368Z,61.60
2023-02-07T08:56:03.977Z,58.60
2023-02-07T08:58:32.125Z,50.10
2023-02-07T09:01:00.223Z,47.30
2023-02-07T09:03:28.433Z,39.40
2023-02-07T09:05:59.525Z,38.40
2023-02-07T09:08:27.618Z,35.50
2023-02-07T09:10:55.774Z,42.80
2023-02-07T09:13:23.735Z,42.10
2023-02-07T09:15:55.835Z,48.70
2023-02-07T09:18:26.815Z,44.40
2023-02-07T09:20:54.684Z,38.40
2023-02-07T09:23:22.930Z,45.10
2023-02-07T09:25:52.552Z,63.80
2023-02-07T09:28:24.889Z,54.60
2023-02-07T09:30:53.251Z,58.70
2023-02-07T09:33:23.485Z,63.20
2023-02-07T09:35:51.910Z,54.60
2023-02-07T09:38:21.683Z,45.60
2023-02-07T09:40:51.603Z,42.10
2023-02-07T09:43:39.107Z,33.60
2023-02-07T09:46:12.693Z,33.40
2023-02-07T09:48:50.420Z,40.40
2023-02-07T09:51:19.530Z,37.60
2023-02-07T09:53:51.388Z,32.10
2023-02-07T09:56:20.168Z,36.30
2023-02-07T09:58:51.372Z,37.20
2023-02-07T10:01:21.775Z,46.20
2023-02-07T10:06:22.463Z,87.00
2023-02-07T10:08:54.141Z,38.10
2023-02-07T10:11:22.346Z,27.00
2023-02-07T10:14:03.685Z,27.80
2023-02-07T10:16:43.589Z,27.40
2023-02-07T10:19:23.679Z,25.40
2023-02-07T10:21:54.400Z,24.20
2023-02-07T10:24:45.584Z,24.20
2023-02-07T10:27:16.066Z,26.80
2023-02-07T10:29:44.044Z,27.80
2023-02-07T10:32:24.911Z,22.90
2023-02-07T10:34:55.678Z,25.10
2023-02-07T10:37:24.970Z,23.30
2023-02-07T10:40:08.179Z,25.00
2023-02-07T10:42:37.229Z,21.90
2023-02-07T10:45:06.437Z,19.20
2023-02-07T10:47:36.713Z,19.20
2023-02-07T10:50:13.792Z,25.40
2023-02-07T10:52:45.019Z,32.90
2023-02-07T10:55:14.159Z,21.40
2023-02-07T10:57:59.758Z,44.90
2023-02-07T11:00:33.277Z,45.00
2023-02-07T11:03:13.033Z,18.00
2023-02-07T11:05:55.475Z,30.00
2023-02-07T11:08:25.518Z,29.60
2023-02-07T11:10:55.757Z,25.00
2023-02-07T11:13:27.919Z,26.10
2023-02-07T11:15:57.121Z,26.50
2023-02-07T11:18:28.062Z,26.30
2023-02-07T11:20:56.454Z,28.90
2023-02-07T11:23:25.461Z,29.60
2023-02-07T11:25:54.871Z,31.60
2023-02-07T11:28:25.560Z,29.20
2023-02-07T11:33:29.781Z,27.50
2023-02-07T11:36:08.390Z,35.10
2023-02-07T11:38:37.722Z,30.00
2023-02-07T11:41:08.647Z,38.20
2023-02-07T11:43:36.762Z,31.60
2023-02-07T11:46:09.736Z,26.10
2023-02-07T11:48:39.665Z,26.10
2023-02-07T11:51:08.638Z,25.10
2023-02-07T11:53:51.201Z,24.30
2023-02-07T11:56:26.955Z,24.90
2023-02-07T11:58:55.863Z,23.80
2023-02-07T12:01:28.616Z,23.10
2023-02-07T12:04:01.837Z,23.30
2023-02-07T12:06:50.173Z,27.50
2023-02-07T12:09:36.937Z,23.40
2023-02-07T12:12:07.999Z,21.50
2023-02-07T12:14:39.758Z,25.60
2023-02-07T12:17:12.333Z,26.40
2023-02-07T12:19:51.663Z,23.50
2023-02-07T12:22:25.818Z,18.40
2023-02-07T12:25:14.332Z,20.70
2023-02-07T12:27:45.045Z,20.10
2023-02-07T12:30:19.063Z,24.00
2023-02-07T12:32:51.501Z,44.10
2023-02-07T12:35:26.469Z,27.10
2023-02-07T12:37:57.540Z,32.20
2023-02-07T12:40:35.146Z,33.20
2023-02-07T12:43:03.796Z,25.00
2023-02-07T12:45:34.899Z,24.00
2023-02-07T12:48:23.493Z,28.80
2023-02-07T12:50:59.784Z,30.60
2023-02-07T12:53:27.757Z,29.70
2023-02-07T12:56:04.727Z,34.10
2023-02-07T12:58:48.066Z,35.80
2023-02-07T13:01:34.846Z,30.80
2023-02-07T13:04:44.679Z,26.70
2023-02-07T13:07:23.667Z,34.90
2023-02-07T13:10:01.340Z,29.10
2023-02-07T13:12:29.557Z,36.00
2023-02-07T13:15:21.704Z,26.90
2023-02-07T13:18:08.122Z,29.00
2023-02-07T13:20:41.274Z,29.70
2023-02-07T13:23:21.099Z,26.10
2023-02-07T13:25:53.695Z,30.00
2023-02-07T13:28:27.530Z,34.60
2023-02-07T13:30:57.567Z,31.60
2023-02-07T13:33:42.138Z,29.00
2023-02-07T13:46:41.812Z,41.30
2023-02-07T13:49:27.456Z,156.80
2023-02-07T13:52:03.074Z,32.90
2023-02-07T13:54:44.225Z,40.60
2023-02-07T14:00:11.214Z,47.40
2023-02-07T14:02:45.400Z,36.20
2023-02-07T14:05:34.465Z,28.20
2023-02-07T14:08:06.028Z,29.60
2023-02-07T14:10:32.957Z,30.30
2023-02-07T14:13:02.026Z,43.20
2023-02-07T14:15:29.962Z,34.70
2023-02-07T14:18:01.636Z,30.90
2023-02-07T14:20:35.009Z,30.60
2023-02-07T14:23:15.443Z,30.80
2023-02-07T14:25:53.660Z,29.50
2023-02-07T14:28:28.585Z,32.30
2023-02-07T14:31:01.882Z,34.80
2023-02-07T14:33:32.290Z,32.80
2023-02-07T14:36:16.820Z,39.10
2023-02-07T14:38:58.642Z,33.40
2023-02-07T14:41:29.993Z,41.70
2023-02-07T14:44:09.276Z,33.10
2023-02-07T14:46:39.398Z,35.00
2023-02-07T14:49:13.299Z,35.30
2023-02-07T14:51:48.046Z,30.40
2023-02-07T14:54:17.595Z,28.10
2023-02-07T14:56:53.164Z,26.80
2023-02-07T14:59:38.505Z,34.10
2023-02-07T15:02:27.091Z,41.90
2023-02-07T15:04:53.981Z,57.80
2023-02-07T15:07:20.657Z,38.80
2023-02-07T15:09:50.158Z,29.20
2023-02-07T15:12:27.243Z,43.40
2023-02-07T15:14:56.578Z,55.70
2023-02-07T15:17:33.427Z,58.90
2023-02-07T15:20:11.971Z,47.10
2023-02-07T15:22:38.608Z,41.00
2023-02-07T15:25:05.384Z,46.50
2023-02-07T15:27:32.083Z,55.20
2023-02-07T15:30:00.741Z,54.30
2023-02-07T15:32:40.866Z,53.20
2023-02-07T15:35:27.721Z,53.30
2023-02-07T15:38:12.152Z,44.50
2023-02-07T15:40:42.419Z,46.20
2023-02-07T15:43:44.649Z,55.00
2023-02-07T15:46:12.060Z,52.80
2023-02-07T15:48:46.123Z,51.70
2023-02-07T15:51:14.494Z,52.70
2023-02-07T15:53:44.027Z,47.50
2023-02-07T15:56:17.604Z,47.80
2023-02-07T15:59:02.760Z,64.60
2023-02-07T16:02:13.042Z,114.90
2023-02-07T16:04:39.984Z,86.40
2023-02-07T16:07:26.997Z,75.10
2023-02-07T16:10:28.351Z,72.30
2023-02-07T16:13:21.089Z,87.80
2023-02-07T16:15:54.654Z,116.20
2023-02-07T16:18:39.844Z,143.20
2023-02-07T16:21:10.393Z,128.20
2023-02-07T16:23:36.948Z,106.40
2023-02-07T16:26:03.757Z,109.30
2023-02-07T16:28:31.458Z,93.90
2023-02-07T16:30:59.128Z,69.80
2023-02-07T16:33:25.963Z,60.90
2023-02-07T16:35:52.669Z,85.80
2023-02-07T16:38:19.532Z,88.80
2023-02-07T16:40:47.689Z,78.70
2023-02-07T16:43:35.028Z,81.70
2023-02-07T16:46:01.755Z,84.40
2023-02-07T16:48:28.819Z,92.60
2023-02-07T16:50:57.265Z,116.00
2023-02-07T16:53:24.756Z,112.90
2023-02-07T16:55:52.289Z,123.70
2023-02-07T16:58:29.672Z,123.50
2023-02-07T17:00:56.595Z,128.20
2023-02-07T17:03:51.239Z,104.40
2023-02-07T17:06:26.833Z,107.00
2023-02-07T17:08:55.882Z,108.50
2023-02-07T17:11:26.603Z,115.80
2023-02-07T17:13:54.142Z,109.50
2023-02-07T17:16:25.723Z,154.40
2023-02-07T17:19:12.978Z,132.50
2023-02-07T17:21:41.726Z,125.90
2023-02-07T17:24:09.633Z,121.80
2023-02-07T17:26:45.577Z,123.90
2023-02-07T17:29:13.533Z,97.10
2023-02-07T17:31:40.958Z,106.40
2023-02-07T17:34:07.616Z,101.10
2023-02-07T17:36:36.763Z,96.00
2023-02-07T17:39:03.637Z,116.80
2023-02-07T17:41:31.048Z,117.70
2023-02-07T17:44:00.116Z,96.00
2023-02-07T17:46:27.260Z,116.30
2023-02-07T17:48:57.341Z,119.70
2023-02-07T17:51:31.682Z,103.20
2023-02-07T17:54:00.431Z,112.10
2023-02-07T17:56:28.471Z,133.50
2023-02-07T17:58:59.532Z,138.80
2023-02-07T18:03:53.594Z,111.70
2023-02-07T18:06:22.681Z,125.50
2023-02-07T18:08:52.203Z,123.50
2023-02-07T18:11:22.002Z,105.10
2023-02-07T18:13:49.659Z,98.90
2023-02-07T18:16:39.555Z,109.70
2023-02-07T18:19:06.694Z,125.10
2023-02-07T18:21:51.137Z,122.90
2023-02-07T18:24:17.983Z,128.20
2023-02-07T18:26:45.679Z,116.20
2023-02-07T18:29:12.298Z,130.60
2023-02-07T18:31:43.082Z,157.90
2023-02-07T18:34:09.782Z,121.50
2023-02-07T18:36:45.835Z,132.10
2023-02-07T18:39:19.954Z,126.10
2023-02-07T18:41:46.621Z,138.30
2023-02-07T18:44:15.877Z,116.40
2023-02-07T18:46:42.750Z,129.70
2023-02-07T18:49:18.552Z,124.30
2023-02-07T18:51:55.415Z,141.70
2023-02-07T18:54:25.020Z,132.00
2023-02-07T18:56:52.109Z,129.30
2023-02-07T18:59:22.277Z,123.80
2023-02-07T19:01:50.499Z,159.80
2023-02-07T19:04:17.358Z,146.20
2023-02-07T19:06:48.417Z,112.70
2023-02-07T19:09:16.727Z,120.90
2023-02-07T19:11:44.129Z,108.50
2023-02-07T19:14:14.735Z,107.50
2023-02-07T19:16:41.491Z,128.30
2023-02-07T19:19:09.557Z,113.80
2023-02-07T19:21:36.322Z,104.00
2023-02-07T19:24:07.070Z,119.90
2023-02-07T19:29:01.291Z,208.50
2023-02-07T19:31:39.185Z,198.30
2023-02-07T19:34:06.365Z,152.80
2023-02-07T19:36:40.711Z,227.10
2023-02-07T19:39:07.391Z,193.60
2023-02-07T19:41:34.476Z,161.20
2023-02-07T19:44:01.761Z,170.60
2023-02-07T19:46:37.741Z,178.10
2023-02-07T19:49:06.804Z,199.00
2023-02-07T19:51:33.718Z,215.00
2023-02-07T19:54:00.571Z,233.40
2023-02-07T19:56:31.354Z,298.90
2023-02-07T19:58:59.167Z,264.20
2023-02-07T20:01:28.757Z,225.40
2023-02-07T20:03:56.424Z,221.90
2023-02-07T20:06:34.411Z,249.70
2023-02-07T20:09:22.389Z,251.10
2023-02-07T20:12:01.300Z,198.30
2023-02-07T20:15:06.321Z,190.10
2023-02-07T20:17:34.839Z,177.30
2023-02-07T20:20:01.780Z,208.30
2023-02-07T20:22:29.039Z,205.70
2023-02-07T20:24:55.709Z,178.30
2023-02-07T20:27:34.771Z,210.40
2023-02-07T20:30:01.769Z,246.30
2023-02-07T20:32:28.538Z,337.20
2023-02-07T20:35:07.847Z,288.60
2023-02-07T20:37:37.697Z,242.20
2023-02-07T20:40:07.736Z,256.00
2023-02-07T20:42:34.270Z,225.00
2023-02-07T20:45:21.127Z,177.00
2023-02-07T20:48:01.204Z,198.30
2023-02-07T20:50:27.908Z,161.90
2023-02-07T20:52:54.541Z,166.80
2023-02-07T20:55:24.246Z,264.30
2023-02-07T20:57:51.089Z,185.40
2023-02-07T21:00:20.295Z,151.60
2023-02-07T21:02:47.167Z,136.30
2023-02-07T21:05:17.283Z,132.40
2023-02-07T21:07:44.126Z,113.20
2023-02-07T21:10:10.847Z,97.30
2023-02-07T21:12:39.965Z,95.80
2023-02-07T21:15:06.891Z,117.10
2023-02-07T21:17:36.084Z,117.00
2023-02-07T21:20:12.157Z,122.20
2023-02-07T21:22:49.318Z,117.10
2023-02-07T21:25:16.266Z,63.60
2023-02-07T21:27:42.896Z,92.50
2023-02-07T21:30:09.886Z,75.70
2023-02-07T21:32:36.613Z,76.10
2023-02-07T21:35:12.648Z,70.50
2023-02-07T21:37:39.376Z,71.30
2023-02-07T21:40:06.532Z,76.90
2023-02-07T21:42:33.385Z,63.40
2023-02-07T21:45:00.201Z,83.30
2023-02-07T21:47:27.880Z,78.20
2023-02-07T21:49:54.923Z,38.60
2023-02-07T21:52:21.459Z,21.60
2023-02-07T21:54:48.206Z,25.30
2023-02-07T21:57:16.902Z,25.20
2023-02-07T21:59:43.534Z,22.10
2023-02-07T22:02:10.926Z,24.90
2023-02-07T22:04:38.031Z,27.90
2023-02-07T22:07:04.870Z,24.40
2023-02-07T22:09:31.717Z,30.10
2023-02-07T22:11:58.360Z,33.70
2023-02-07T22:14:25.303Z,27.10
2023-02-07T22:16:52.635Z,30.00
2023-02-07T22:19:20.034Z,36.80
2023-02-07T22:21:47.312Z,30.50
2023-02-07T22:24:15.249Z,29.00
2023-02-07T22:26:42.175Z,29.80
2023-02-07T22:29:09.145Z,27.40
2023-02-07T22:31:38.679Z,31.80
2023-02-07T22:34:07.178Z,34.20
2023-02-07T22:36:38.261Z,42.40
2023-02-07T22:41:32.057Z,36.60
2023-02-07T22:44:00.663Z,30.60
2023-02-07T22:46:28.109Z,35.20
2023-02-07T22:48:55.209Z,32.50
2023-02-07T22:51:28.086Z,29.20
2023-02-07T22:53:57.337Z,30.50
2023-02-07T22:56:25.182Z,33.30
2023-02-07T22:58:54.535Z,25.80
2023-02-07T23:01:28.754Z,30.30
2023-02-07T23:03:56.246Z,32.00
2023-02-07T23:06:26.196Z,35.80
2023-02-07T23:08:53.314Z,40.40
2023-02-07T23:11:22.920Z,39.50
2023-02-07T23:13:49.898Z,36.30
2023-02-07T23:16:20.041Z,40.40
2023-02-07T23:18:48.265Z,31.70
2023-02-07T23:21:16.730Z,30.70
2023-02-07T23:23:46.462Z,31.90
2023-02-07T23:26:14.463Z,30.30
2023-02-07T23:28:41.604Z,25.40
2023-02-07T23:31:15.179Z,34.50
2023-02-07T23:33:45.462Z,35.60
2023-02-07T23:36:12.573Z,34.30
2023-02-07T23:38:39.637Z,32.10
2023-02-07T23:41:07.055Z,40.40
2023-02-07T23:43:37.217Z,33.30
2023-02-07T23:46:04.551Z,31.90
2023-02-07T23:48:32.815Z,38.00
2023-02-07T23:50:59.472Z,27.80
2023-02-07T23:53:28.575Z,26.60
2023-02-07T23:55:55.675Z,30.30
2023-02-07T23:58:25.339Z,26.60
